Norwalk, CT (06851)

8:17 PM EDT on June 02, 2015 (GMT -0400)
Cranbury | | Change Station
CLOSE
Current Station
Personal Weather Station
Location: Norwalk, CT
Elevation: 86 ft
Nearby Weather Stations

Elev 86 ft 41.14 °N, 73.40 °W | Updated 6 seconds ago

Rain
Rain
52.7 °F
Feels Like 52.7 °F
N
0.0
Wind Variable Wind from NW
Gusts 0.0 mph

Today
High -- | Low -- °F
--% Chance of Precip.
Yesterday
High -- | Low -- °F
Precip. -- in
5:23 AM 8:20 PM
Full, 100% visible
Pressure 30.16 in
Visibility 10.0 miles
Clouds Scattered Clouds 1900 ft
Mostly Cloudy 2500 ft
Mostly Cloudy 5500 ft
Dew Point 52 °F
Humidity 97%
Rainfall 0.42 in
Snow Depth Not available.
UV 0 out of 12
Pollen .50 out of 12
Air Quality Not available.
Flu Activity Local Activity
METAR KBDR 022352Z 06008KT 10SM SCT019 BKN025 BKN055 12/10 A3016 RMK AO2 CIG 019 R29 SE SLP213 60017 T01220100 10128 20117 52009 $

More Conditions Fewer Conditions

Pressure 30.16 in
Visibility 10.0 miles
Clouds Scattered Clouds 1900 ft
Mostly Cloudy 2500 ft
Mostly Cloudy 5500 ft
Dew Point 52 °F
Humidity 97%
Rainfall 0.42 in
Snow Depth Not available.
UV 0 out of 12
Pollen .50 out of 12
Air Quality Not available.
Flu Activity Local Activity
METAR KBDR 022352Z 06008KT 10SM SCT019 BKN025 BKN055 12/10 A3016 RMK AO2 CIG 019 R29 SE SLP213 60017 T01220100 10128 20117 52009 $

More Conditions Fewer Conditions

10-Day Weather Forecast

×

Almanac

Astronomy

Jun. 02, 2015 Rise Set
Actual Time
Civil Twilight
Nautical Twilight
Astronomical Twilight
Moon
Length of Visible Light
Length of Day
Tomorrow will be .
, % of the Moon is Illuminated

Today's Extremes

State Highs State Lows

Community

WunderPhotos

Upload Photos

1,826,074 photos uploaded!

WunderBlogs® & News

Nearby

Air Quality

  Air Quality AQ Index Pollutant
Not available.

Snow Depth

Station Depth Elevation

Earthquake Activity

City Distance Mag. Time & Date
Minimum magnitude displayed is 2.5.

Coastal Water Temperatures

Place Temperature

Stations

Nearby Weather Stations

Station Location Temp. Windchill Dew Point Humidity Wind Precip. Elev Updated Type